sensor_id;sensor_type;location;lat;lon;timestamp;temperature;humidity
18781;DHT22;9519;51.890;8.970;2022-11-15T00:03:29;9.90;99.90
18781;DHT22;9519;51.890;8.970;2022-11-15T00:08:31;10.00;99.90
18781;DHT22;9519;51.890;8.970;2022-11-15T00:13:34;10.00;99.90
18781;DHT22;9519;51.890;8.970;2022-11-15T00:18:38;10.10;99.90
18781;DHT22;9519;51.890;8.970;2022-11-15T00:23:40;10.10;99.90
18781;DHT22;9519;51.890;8.970;2022-11-15T00:28:43;10.20;99.90
18781;DHT22;9519;51.890;8.970;2022-11-15T00:33:46;10.30;99.90
18781;DHT22;9519;51.890;8.970;2022-11-15T00:38:48;10.30;99.90
18781;DHT22;9519;51.890;8.970;2022-11-15T00:43:51;10.40;99.90
18781;DHT22;9519;51.890;8.970;2022-11-15T00:48:54;10.40;99.90
18781;DHT22;9519;51.890;8.970;2022-11-15T00:53:56;10.50;99.90
18781;DHT22;9519;51.890;8.970;2022-11-15T00:58:59;10.60;99.90
18781;DHT22;9519;51.890;8.970;2022-11-15T01:04:02;10.60;99.90
18781;DHT22;9519;51.890;8.970;2022-11-15T01:09:04;10.60;99.90
18781;DHT22;9519;51.890;8.970;2022-11-15T01:14:07;10.60;99.90
18781;DHT22;9519;51.890;8.970;2022-11-15T01:19:10;10.60;99.90
18781;DHT22;9519;51.890;8.970;2022-11-15T01:24:13;10.60;99.90
18781;DHT22;9519;51.890;8.970;2022-11-15T01:29:15;10.70;99.90
18781;DHT22;9519;51.890;8.970;2022-11-15T01:34:18;10.60;99.90
18781;DHT22;9519;51.890;8.970;2022-11-15T01:39:20;10.70;99.90
18781;DHT22;9519;51.890;8.970;2022-11-15T01:44:43;10.60;99.90
18781;DHT22;9519;51.890;8.970;2022-11-15T01:49:56;10.60;99.90
18781;DHT22;9519;51.890;8.970;2022-11-15T01:55:07;10.60;99.90
18781;DHT22;9519;51.890;8.970;2022-11-15T02:00:13;10.50;99.90
18781;DHT22;9519;51.890;8.970;2022-11-15T02:05:17;10.50;99.90
18781;DHT22;9519;51.890;8.970;2022-11-15T02:10:21;10.50;99.90
18781;DHT22;9519;51.890;8.970;2022-11-15T02:15:30;10.50;99.90
18781;DHT22;9519;51.890;8.970;2022-11-15T02:20:50;10.40;99.90
18781;DHT22;9519;51.890;8.970;2022-11-15T02:31:57;10.40;99.90
18781;DHT22;9519;51.890;8.970;2022-11-15T02:37:11;10.40;99.90
18781;DHT22;9519;51.890;8.970;2022-11-15T02:42:22;10.40;99.90
18781;DHT22;9519;51.890;8.970;2022-11-15T02:47:48;10.40;99.90
18781;DHT22;9519;51.890;8.970;2022-11-15T02:52:55;10.40;99.90
18781;DHT22;9519;51.890;8.970;2022-11-15T02:58:12;10.50;99.90
18781;DHT22;9519;51.890;8.970;2022-11-15T03:03:45;10.60;99.90
18781;DHT22;9519;51.890;8.970;2022-11-15T03:09:03;10.60;99.90
18781;DHT22;9519;51.890;8.970;2022-11-15T03:14:18;10.70;99.90
18781;DHT22;9519;51.890;8.970;2022-11-15T03:19:31;10.70;99.90
18781;DHT22;9519;51.890;8.970;2022-11-15T03:24:39;10.80;99.90
18781;DHT22;9519;51.890;8.970;2022-11-15T03:29:47;10.80;99.90
18781;DHT22;9519;51.890;8.970;2022-11-15T03:34:58;10.80;99.90
18781;DHT22;9519;51.890;8.970;2022-11-15T03:40:04;10.80;99.90
18781;DHT22;9519;51.890;8.970;2022-11-15T03:45:13;10.70;99.90
18781;DHT22;9519;51.890;8.970;2022-11-15T03:50:21;10.60;99.90
18781;DHT22;9519;51.890;8.970;2022-11-15T03:55:24;10.60;99.90
18781;DHT22;9519;51.890;8.970;2022-11-15T04:00:27;10.50;99.90
18781;DHT22;9519;51.890;8.970;2022-11-15T04:05:31;10.50;99.90
18781;DHT22;9519;51.890;8.970;2022-11-15T04:10:33;10.50;99.90
18781;DHT22;9519;51.890;8.970;2022-11-15T04:15:36;10.40;99.90
18781;DHT22;9519;51.890;8.970;2022-11-15T04:20:39;10.40;99.90
18781;DHT22;9519;51.890;8.970;2022-11-15T04:26:01;10.40;99.90
18781;DHT22;9519;51.890;8.970;2022-11-15T04:31:05;10.40;99.90
18781;DHT22;9519;51.890;8.970;2022-11-15T04:36:09;10.30;99.90
18781;DHT22;9519;51.890;8.970;2022-11-15T04:41:29;10.30;99.90
18781;DHT22;9519;51.890;8.970;2022-11-15T04:46:31;10.30;99.90
18781;DHT22;9519;51.890;8.970;2022-11-15T04:51:34;10.30;99.90
18781;DHT22;9519;51.890;8.970;2022-11-15T04:56:38;10.30;99.90
18781;DHT22;9519;51.890;8.970;2022-11-15T05:01:40;10.30;99.90
18781;DHT22;9519;51.890;8.970;2022-11-15T05:06:46;10.30;99.90
18781;DHT22;9519;51.890;8.970;2022-11-15T05:11:49;10.30;99.90
18781;DHT22;9519;51.890;8.970;2022-11-15T05:16:51;10.40;99.90
18781;DHT22;9519;51.890;8.970;2022-11-15T05:21:55;10.40;99.90
18781;DHT22;9519;51.890;8.970;2022-11-15T05:26:57;10.50;99.90
18781;DHT22;9519;51.890;8.970;2022-11-15T05:31:59;10.50;99.90
18781;DHT22;9519;51.890;8.970;2022-11-15T05:37:03;10.60;99.90
18781;DHT22;9519;51.890;8.970;2022-11-15T05:42:07;10.70;99.90
18781;DHT22;9519;51.890;8.970;2022-11-15T05:47:15;10.80;99.90
18781;DHT22;9519;51.890;8.970;2022-11-15T05:52:25;10.90;99.90
18781;DHT22;9519;51.890;8.970;2022-11-15T05:57:31;11.00;99.90
18781;DHT22;9519;51.890;8.970;2022-11-15T06:02:33;11.10;99.90
18781;DHT22;9519;51.890;8.970;2022-11-15T06:07:37;11.20;99.90
18781;DHT22;9519;51.890;8.970;2022-11-15T06:12:39;11.30;99.90
18781;DHT22;9519;51.890;8.970;2022-11-15T06:17:41;11.40;99.90
18781;DHT22;9519;51.890;8.970;2022-11-15T06:22:45;11.40;99.90
18781;DHT22;9519;51.890;8.970;2022-11-15T06:27:51;11.40;99.90
18781;DHT22;9519;51.890;8.970;2022-11-15T06:32:59;11.50;99.90
18781;DHT22;9519;51.890;8.970;2022-11-15T06:38:06;11.50;99.90
18781;DHT22;9519;51.890;8.970;2022-11-15T06:43:09;11.40;99.90
18781;DHT22;9519;51.890;8.970;2022-11-15T06:48:11;11.40;99.90
18781;DHT22;9519;51.890;8.970;2022-11-15T06:53:15;11.40;99.90
18781;DHT22;9519;51.890;8.970;2022-11-15T06:58:17;11.30;99.90
18781;DHT22;9519;51.890;8.970;2022-11-15T07:03:19;11.30;99.90
18781;DHT22;9519;51.890;8.970;2022-11-15T07:08:24;11.30;99.90
18781;DHT22;9519;51.890;8.970;2022-11-15T07:13:29;11.30;99.90
18781;DHT22;9519;51.890;8.970;2022-11-15T07:18:34;11.30;99.90
18781;DHT22;9519;51.890;8.970;2022-11-15T07:23:38;11.30;99.90
18781;DHT22;9519;51.890;8.970;2022-11-15T07:28:41;11.30;99.90
18781;DHT22;9519;51.890;8.970;2022-11-15T07:33:43;11.30;99.90
18781;DHT22;9519;51.890;8.970;2022-11-15T07:38:46;11.30;99.90
18781;DHT22;9519;51.890;8.970;2022-11-15T07:43:51;11.30;99.90
18781;DHT22;9519;51.890;8.970;2022-11-15T07:48:53;11.30;99.90
18781;DHT22;9519;51.890;8.970;2022-11-15T07:53:57;11.40;99.90
18781;DHT22;9519;51.890;8.970;2022-11-15T07:58:59;11.50;99.90
18781;DHT22;9519;51.890;8.970;2022-11-15T08:04:01;11.50;99.90
18781;DHT22;9519;51.890;8.970;2022-11-15T08:09:05;11.60;99.90
18781;DHT22;9519;51.890;8.970;2022-11-15T08:14:07;11.70;99.90
18781;DHT22;9519;51.890;8.970;2022-11-15T08:19:09;11.70;99.90
18781;DHT22;9519;51.890;8.970;2022-11-15T08:24:13;11.80;99.90
18781;DHT22;9519;51.890;8.970;2022-11-15T08:29:15;11.90;99.90
18781;DHT22;9519;51.890;8.970;2022-11-15T08:34:17;12.00;99.90
18781;DHT22;9519;51.890;8.970;2022-11-15T08:39:20;12.10;99.90
18781;DHT22;9519;51.890;8.970;2022-11-15T08:44:23;12.10;99.90
18781;DHT22;9519;51.890;8.970;2022-11-15T08:49:25;12.20;99.90
18781;DHT22;9519;51.890;8.970;2022-11-15T08:54:30;12.30;99.90
18781;DHT22;9519;51.890;8.970;2022-11-15T08:59:32;12.40;99.90
18781;DHT22;9519;51.890;8.970;2022-11-15T09:04:34;12.60;99.90
18781;DHT22;9519;51.890;8.970;2022-11-15T09:09:38;12.70;99.90
18781;DHT22;9519;51.890;8.970;2022-11-15T09:14:40;12.80;99.90
18781;DHT22;9519;51.890;8.970;2022-11-15T09:19:42;12.90;99.90
18781;DHT22;9519;51.890;8.970;2022-11-15T09:24:46;13.00;99.90
18781;DHT22;9519;51.890;8.970;2022-11-15T09:29:48;13.00;99.90
18781;DHT22;9519;51.890;8.970;2022-11-15T09:34:50;13.10;99.90
18781;DHT22;9519;51.890;8.970;2022-11-15T09:39:53;13.20;99.90
18781;DHT22;9519;51.890;8.970;2022-11-15T09:45:10;13.20;99.90
18781;DHT22;9519;51.890;8.970;2022-11-15T09:50:27;13.30;99.90
18781;DHT22;9519;51.890;8.970;2022-11-15T09:55:43;13.40;99.90
18781;DHT22;9519;51.890;8.970;2022-11-15T10:00:51;13.50;99.90
18781;DHT22;9519;51.890;8.970;2022-11-15T10:05:57;13.60;99.90
18781;DHT22;9519;51.890;8.970;2022-11-15T10:11:05;13.70;99.90
18781;DHT22;9519;51.890;8.970;2022-11-15T10:22:03;13.90;99.90
18781;DHT22;9519;51.890;8.970;2022-11-15T10:27:18;14.00;99.90
18781;DHT22;9519;51.890;8.970;2022-11-15T10:32:21;14.10;99.90
18781;DHT22;9519;51.890;8.970;2022-11-15T10:37:31;14.10;99.90
18781;DHT22;9519;51.890;8.970;2022-11-15T10:42:35;14.20;99.90
18781;DHT22;9519;51.890;8.970;2022-11-15T10:47:37;14.30;99.90
18781;DHT22;9519;51.890;8.970;2022-11-15T10:52:45;14.30;99.90
18781;DHT22;9519;51.890;8.970;2022-11-15T10:57:51;14.40;99.90
18781;DHT22;9519;51.890;8.970;2022-11-15T11:03:00;14.40;99.90
18781;DHT22;9519;51.890;8.970;2022-11-15T11:08:09;14.50;99.90
18781;DHT22;9519;51.890;8.970;2022-11-15T11:13:26;14.60;99.90
18781;DHT22;9519;51.890;8.970;2022-11-15T11:18:34;14.70;99.90
18781;DHT22;9519;51.890;8.970;2022-11-15T11:23:51;14.70;99.90
18781;DHT22;9519;51.890;8.970;2022-11-15T11:29:02;14.70;99.80
18781;DHT22;9519;51.890;8.970;2022-11-15T11:34:15;14.70;99.80
18781;DHT22;9519;51.890;8.970;2022-11-15T11:39:33;14.70;99.90
18781;DHT22;9519;51.890;8.970;2022-11-15T11:44:56;14.70;99.90
18781;DHT22;9519;51.890;8.970;2022-11-15T11:50:11;14.70;99.90
18781;DHT22;9519;51.890;8.970;2022-11-15T11:55:20;14.70;99.90
18781;DHT22;9519;51.890;8.970;2022-11-15T12:00:27;14.70;99.90
18781;DHT22;9519;51.890;8.970;2022-11-15T12:05:32;14.70;99.90
18781;DHT22;9519;51.890;8.970;2022-11-15T12:10:40;14.80;99.90
18781;DHT22;9519;51.890;8.970;2022-11-15T12:15:52;14.80;99.90
18781;DHT22;9519;51.890;8.970;2022-11-15T12:21:02;14.80;99.70
18781;DHT22;9519;51.890;8.970;2022-11-15T12:26:14;14.90;99.80
18781;DHT22;9519;51.890;8.970;2022-11-15T12:31:26;14.90;99.70
18781;DHT22;9519;51.890;8.970;2022-11-15T12:36:37;14.90;99.40
18781;DHT22;9519;51.890;8.970;2022-11-15T12:41:43;14.90;99.30
18781;DHT22;9519;51.890;8.970;2022-11-15T12:47:21;14.90;99.20
18781;DHT22;9519;51.890;8.970;2022-11-15T12:52:24;14.90;99.10
18781;DHT22;9519;51.890;8.970;2022-11-15T12:57:35;14.90;99.00
18781;DHT22;9519;51.890;8.970;2022-11-15T13:02:44;14.90;98.60
18781;DHT22;9519;51.890;8.970;2022-11-15T13:07:58;14.80;98.40
18781;DHT22;9519;51.890;8.970;2022-11-15T13:13:01;14.80;98.00
18781;DHT22;9519;51.890;8.970;2022-11-15T13:18:29;14.70;97.70
18781;DHT22;9519;51.890;8.970;2022-11-15T13:23:37;14.70;97.70
18781;DHT22;9519;51.890;8.970;2022-11-15T13:28:43;14.80;97.60
18781;DHT22;9519;51.890;8.970;2022-11-15T13:33:49;14.80;97.50
18781;DHT22;9519;51.890;8.970;2022-11-15T13:38:58;14.80;97.20
18781;DHT22;9519;51.890;8.970;2022-11-15T13:44:05;14.80;97.40
18781;DHT22;9519;51.890;8.970;2022-11-15T13:49:29;14.90;97.40
18781;DHT22;9519;51.890;8.970;2022-11-15T13:54:36;14.90;97.30
18781;DHT22;9519;51.890;8.970;2022-11-15T13:59:46;14.90;97.40
18781;DHT22;9519;51.890;8.970;2022-11-15T14:04:53;14.90;97.40
18781;DHT22;9519;51.890;8.970;2022-11-15T14:09:58;14.90;97.00
18781;DHT22;9519;51.890;8.970;2022-11-15T14:15:27;14.90;97.00
18781;DHT22;9519;51.890;8.970;2022-11-15T14:20:34;14.90;97.00
18781;DHT22;9519;51.890;8.970;2022-11-15T14:25:38;14.90;96.70
18781;DHT22;9519;51.890;8.970;2022-11-15T14:30:42;14.80;96.70
18781;DHT22;9519;51.890;8.970;2022-11-15T14:35:48;14.80;96.70
18781;DHT22;9519;51.890;8.970;2022-11-15T14:40:51;14.80;96.60
18781;DHT22;9519;51.890;8.970;2022-11-15T14:45:54;14.90;96.50
18781;DHT22;9519;51.890;8.970;2022-11-15T14:50:58;14.90;96.40
18781;DHT22;9519;51.890;8.970;2022-11-15T14:56:00;14.80;96.40
18781;DHT22;9519;51.890;8.970;2022-11-15T15:01:03;14.80;96.30
18781;DHT22;9519;51.890;8.970;2022-11-15T15:06:15;14.80;96.20
18781;DHT22;9519;51.890;8.970;2022-11-15T15:11:20;14.80;96.30
18781;DHT22;9519;51.890;8.970;2022-11-15T15:16:24;14.70;96.30
18781;DHT22;9519;51.890;8.970;2022-11-15T15:21:28;14.70;96.30
18781;DHT22;9519;51.890;8.970;2022-11-15T15:26:31;14.70;96.40
18781;DHT22;9519;51.890;8.970;2022-11-15T15:31:36;14.70;96.50
18781;DHT22;9519;51.890;8.970;2022-11-15T15:36:40;14.60;96.60
18781;DHT22;9519;51.890;8.970;2022-11-15T15:41:42;14.60;96.60
18781;DHT22;9519;51.890;8.970;2022-11-15T15:46:44;14.60;96.60
18781;DHT22;9519;51.890;8.970;2022-11-15T15:51:48;14.60;96.70
18781;DHT22;9519;51.890;8.970;2022-11-15T15:56:50;14.50;96.70
18781;DHT22;9519;51.890;8.970;2022-11-15T16:01:52;14.50;96.80
18781;DHT22;9519;51.890;8.970;2022-11-15T16:06:59;14.50;96.90
18781;DHT22;9519;51.890;8.970;2022-11-15T16:12:02;14.50;96.90
18781;DHT22;9519;51.890;8.970;2022-11-15T16:17:04;14.40;97.00
18781;DHT22;9519;51.890;8.970;2022-11-15T16:22:07;14.40;97.00
18781;DHT22;9519;51.890;8.970;2022-11-15T16:27:13;14.40;97.00
18781;DHT22;9519;51.890;8.970;2022-11-15T16:32:16;14.30;97.00
18781;DHT22;9519;51.890;8.970;2022-11-15T16:37:22;14.30;97.00
18781;DHT22;9519;51.890;8.970;2022-11-15T16:42:25;14.20;97.00
18781;DHT22;9519;51.890;8.970;2022-11-15T16:47:27;14.20;97.00
18781;DHT22;9519;51.890;8.970;2022-11-15T16:52:30;14.10;97.10
18781;DHT22;9519;51.890;8.970;2022-11-15T16:57:33;14.10;97.20
18781;DHT22;9519;51.890;8.970;2022-11-15T17:02:35;14.10;97.20
18781;DHT22;9519;51.890;8.970;2022-11-15T17:07:39;14.10;97.30
18781;DHT22;9519;51.890;8.970;2022-11-15T17:12:42;14.00;97.30
18781;DHT22;9519;51.890;8.970;2022-11-15T17:17:45;14.00;97.30
18781;DHT22;9519;51.890;8.970;2022-11-15T17:22:54;13.90;97.40
18781;DHT22;9519;51.890;8.970;2022-11-15T17:27:57;13.90;97.50
18781;DHT22;9519;51.890;8.970;2022-11-15T17:32:59;13.90;98.00
18781;DHT22;9519;51.890;8.970;2022-11-15T17:38:03;13.80;97.70
18781;DHT22;9519;51.890;8.970;2022-11-15T17:43:05;13.80;97.80
18781;DHT22;9519;51.890;8.970;2022-11-15T17:48:09;13.80;98.00
18781;DHT22;9519;51.890;8.970;2022-11-15T17:53:13;13.80;98.00
18781;DHT22;9519;51.890;8.970;2022-11-15T17:58:15;13.80;98.10
18781;DHT22;9519;51.890;8.970;2022-11-15T18:03:18;13.80;98.10
18781;DHT22;9519;51.890;8.970;2022-11-15T18:08:21;13.80;98.20
18781;DHT22;9519;51.890;8.970;2022-11-15T18:13:23;13.70;98.20
18781;DHT22;9519;51.890;8.970;2022-11-15T18:18:26;13.70;98.30
18781;DHT22;9519;51.890;8.970;2022-11-15T18:23:29;13.70;98.30
18781;DHT22;9519;51.890;8.970;2022-11-15T18:28:34;13.70;98.30
18781;DHT22;9519;51.890;8.970;2022-11-15T18:33:37;13.70;98.40
18781;DHT22;9519;51.890;8.970;2022-11-15T18:38:40;13.70;98.40
18781;DHT22;9519;51.890;8.970;2022-11-15T18:43:43;13.70;98.50
18781;DHT22;9519;51.890;8.970;2022-11-15T18:48:47;13.70;98.50
18781;DHT22;9519;51.890;8.970;2022-11-15T18:53:53;13.70;98.50
18781;DHT22;9519;51.890;8.970;2022-11-15T18:58:57;13.70;98.60
18781;DHT22;9519;51.890;8.970;2022-11-15T19:04:04;13.70;98.50
18781;DHT22;9519;51.890;8.970;2022-11-15T19:09:11;13.70;98.60
18781;DHT22;9519;51.890;8.970;2022-11-15T19:14:16;13.70;98.50
18781;DHT22;9519;51.890;8.970;2022-11-15T19:19:21;13.60;98.40
18781;DHT22;9519;51.890;8.970;2022-11-15T19:24:26;13.60;98.40
18781;DHT22;9519;51.890;8.970;2022-11-15T19:29:29;13.60;98.40
18781;DHT22;9519;51.890;8.970;2022-11-15T19:34:31;13.70;98.30
18781;DHT22;9519;51.890;8.970;2022-11-15T19:39:35;13.60;98.30
18781;DHT22;9519;51.890;8.970;2022-11-15T19:44:37;13.70;98.30
18781;DHT22;9519;51.890;8.970;2022-11-15T19:49:39;13.70;98.20
18781;DHT22;9519;51.890;8.970;2022-11-15T19:54:44;13.60;98.10
18781;DHT22;9519;51.890;8.970;2022-11-15T19:59:46;13.60;98.10
18781;DHT22;9519;51.890;8.970;2022-11-15T20:04:48;13.60;98.10
18781;DHT22;9519;51.890;8.970;2022-11-15T20:09:52;13.60;98.10
18781;DHT22;9519;51.890;8.970;2022-11-15T20:14:54;13.50;98.10
18781;DHT22;9519;51.890;8.970;2022-11-15T20:19:56;13.50;98.10
18781;DHT22;9519;51.890;8.970;2022-11-15T20:25:00;13.40;98.00
18781;DHT22;9519;51.890;8.970;2022-11-15T20:30:05;13.40;98.10
18781;DHT22;9519;51.890;8.970;2022-11-15T20:35:08;13.40;98.10
18781;DHT22;9519;51.890;8.970;2022-11-15T20:40:12;13.40;98.10
18781;DHT22;9519;51.890;8.970;2022-11-15T20:45:15;13.40;98.00
18781;DHT22;9519;51.890;8.970;2022-11-15T20:50:17;13.40;98.00
18781;DHT22;9519;51.890;8.970;2022-11-15T20:55:21;13.40;97.90
18781;DHT22;9519;51.890;8.970;2022-11-15T21:00:23;13.30;97.90
18781;DHT22;9519;51.890;8.970;2022-11-15T21:05:25;13.30;97.90
18781;DHT22;9519;51.890;8.970;2022-11-15T21:10:29;13.30;97.80
18781;DHT22;9519;51.890;8.970;2022-11-15T21:15:47;13.30;97.80
18781;DHT22;9519;51.890;8.970;2022-11-15T21:20:49;13.30;97.80
18781;DHT22;9519;51.890;8.970;2022-11-15T21:25:54;13.30;97.70
18781;DHT22;9519;51.890;8.970;2022-11-15T21:30:58;13.30;97.70
18781;DHT22;9519;51.890;8.970;2022-11-15T21:36:01;13.30;97.70
18781;DHT22;9519;51.890;8.970;2022-11-15T21:41:04;13.20;97.60
18781;DHT22;9519;51.890;8.970;2022-11-15T21:46:07;13.20;97.60
18781;DHT22;9519;51.890;8.970;2022-11-15T21:51:10;13.10;97.50
18781;DHT22;9519;51.890;8.970;2022-11-15T21:56:14;13.10;97.50
18781;DHT22;9519;51.890;8.970;2022-11-15T22:01:17;13.10;97.50
18781;DHT22;9519;51.890;8.970;2022-11-15T22:06:37;13.10;97.50
18781;DHT22;9519;51.890;8.970;2022-11-15T22:11:40;13.10;97.50
18781;DHT22;9519;51.890;8.970;2022-11-15T22:16:42;13.00;97.40
18781;DHT22;9519;51.890;8.970;2022-11-15T22:21:44;13.10;97.40
18781;DHT22;9519;51.890;8.970;2022-11-15T22:26:48;13.00;97.40
18781;DHT22;9519;51.890;8.970;2022-11-15T22:31:52;13.00;97.30
18781;DHT22;9519;51.890;8.970;2022-11-15T22:36:54;13.00;97.20
18781;DHT22;9519;51.890;8.970;2022-11-15T22:41:58;13.00;97.20
18781;DHT22;9519;51.890;8.970;2022-11-15T22:47:00;13.00;97.10
18781;DHT22;9519;51.890;8.970;2022-11-15T22:52:03;13.00;97.10
18781;DHT22;9519;51.890;8.970;2022-11-15T22:57:07;13.00;97.10
18781;DHT22;9519;51.890;8.970;2022-11-15T23:02:09;13.00;97.10
18781;DHT22;9519;51.890;8.970;2022-11-15T23:07:11;13.00;97.10
18781;DHT22;9519;51.890;8.970;2022-11-15T23:12:15;13.00;97.00
18781;DHT22;9519;51.890;8.970;2022-11-15T23:17:34;13.00;97.00
18781;DHT22;9519;51.890;8.970;2022-11-15T23:22:37;12.90;97.10
18781;DHT22;9519;51.890;8.970;2022-11-15T23:27:49;12.80;97.20
18781;DHT22;9519;51.890;8.970;2022-11-15T23:32:51;12.80;97.30
18781;DHT22;9519;51.890;8.970;2022-11-15T23:38:11;12.70;97.40
18781;DHT22;9519;51.890;8.970;2022-11-15T23:43:14;12.70;97.50
18781;DHT22;9519;51.890;8.970;2022-11-15T23:48:18;12.70;97.60
18781;DHT22;9519;51.890;8.970;2022-11-15T23:53:20;12.70;97.70
18781;DHT22;9519;51.890;8.970;2022-11-15T23:58:23;12.60;97.70
